<?xml version="1.0" encoding="UTF-8" standalone="no" ?>
<gpx xmlns="http://www.topografix.com/GPX/1/1" xmlns:xsi="http://www.w3.org/2001/XMLSchema-instance" xsi:schemaLocation="http://www.topografix.com/GPX/1/1 http://www.topografix.com/GPX/1/1/gpx.xsd" version="1.1" creator="VisuGPX - https://www.visugpx.com">
  <metadata>
    <name>Rando LN</name>
  </metadata>
  <trk>
    <name><![CDATA[castets-en-dorthe]]></name>
    <extensions>
      <line xmlns="http://www.topografix.com/GPX/gpx_style/0/2">
        <color>ff00f7</color>
        <width>4</width>
      </line>
    </extensions>
    <trkseg>
      <trkpt lat="44.55529" lon="-0.25516">
        <ele>22.1</ele>
      </trkpt>
      <trkpt lat="44.55529" lon="-0.25516">
        <ele>22.1</ele>
      </trkpt>
      <trkpt lat="44.55529" lon="-0.25516">
        <ele>22.1</ele>
      </trkpt>
      <trkpt lat="44.55529" lon="-0.25516">
        <ele>22.1</ele>
      </trkpt>
      <trkpt lat="44.55529" lon="-0.25516">
        <ele>22.1</ele>
      </trkpt>
      <trkpt lat="44.55529" lon="-0.25516">
        <ele>22.1</ele>
      </trkpt>
      <trkpt lat="44.55529" lon="-0.25516">
        <ele>22.1</ele>
      </trkpt>
      <trkpt lat="44.55529" lon="-0.25516">
        <ele>22.1</ele>
      </trkpt>
      <trkpt lat="44.55529" lon="-0.25516">
        <ele>22.1</ele>
      </trkpt>
      <trkpt lat="44.55529" lon="-0.25516">
        <ele>22.1</ele>
      </trkpt>
      <trkpt lat="44.55529" lon="-0.25516">
        <ele>22.1</ele>
      </trkpt>
      <trkpt lat="44.55507" lon="-0.25441">
        <ele>20.7</ele>
      </trkpt>
      <trkpt lat="44.55668" lon="-0.25248">
        <ele>16.1</ele>
      </trkpt>
      <trkpt lat="44.55647" lon="-0.25069">
        <ele>19</ele>
      </trkpt>
      <trkpt lat="44.5566" lon="-0.24921">
        <ele>18.1</ele>
      </trkpt>
      <trkpt lat="44.55616" lon="-0.24758">
        <ele>15.8</ele>
      </trkpt>
      <trkpt lat="44.55612" lon="-0.247">
        <ele>13.5</ele>
      </trkpt>
      <trkpt lat="44.55619" lon="-0.24575">
        <ele>14.563</ele>
        <time>2017-03-28T15:59:38Z</time>
      </trkpt>
      <trkpt lat="44.55619" lon="-0.24575">
        <ele>14.563</ele>
        <time>2017-03-28T15:59:38Z</time>
      </trkpt>
      <trkpt lat="44.55619" lon="-0.24575">
        <ele>14.563</ele>
        <time>2017-03-28T15:59:38Z</time>
      </trkpt>
      <trkpt lat="44.55619" lon="-0.24575">
        <ele>14.563</ele>
        <time>2017-03-28T15:59:38Z</time>
      </trkpt>
      <trkpt lat="44.55569" lon="-0.24345">
        <ele>15.579</ele>
        <time>2017-03-28T15:59:58Z</time>
      </trkpt>
      <trkpt lat="44.55643" lon="-0.24294">
        <ele>8.505</ele>
        <time>2017-03-28T16:00:18Z</time>
      </trkpt>
      <trkpt lat="44.55676" lon="-0.24206">
        <ele>8.525</ele>
        <time>2017-03-28T16:00:38Z</time>
      </trkpt>
      <trkpt lat="44.55697" lon="-0.24109">
        <ele>11.608</ele>
        <time>2017-03-28T16:00:58Z</time>
      </trkpt>
      <trkpt lat="44.55677" lon="-0.23918">
        <ele>11.033</ele>
        <time>2017-03-28T16:01:18Z</time>
      </trkpt>
      <trkpt lat="44.5565" lon="-0.23847">
        <ele>10.168</ele>
        <time>2017-03-28T16:01:38Z</time>
      </trkpt>
      <trkpt lat="44.55602" lon="-0.23791">
        <ele>11.738</ele>
        <time>2017-03-28T16:01:58Z</time>
      </trkpt>
      <trkpt lat="44.55535" lon="-0.23774">
        <ele>10.19</ele>
        <time>2017-03-28T16:02:18Z</time>
      </trkpt>
      <trkpt lat="44.55478" lon="-0.23789">
        <ele>12.032</ele>
        <time>2017-03-28T16:02:38Z</time>
      </trkpt>
      <trkpt lat="44.55492" lon="-0.23736">
        <ele>12.643</ele>
        <time>2017-03-28T16:02:58Z</time>
      </trkpt>
      <trkpt lat="44.55481" lon="-0.23633">
        <ele>8.829</ele>
        <time>2017-03-28T16:03:18Z</time>
      </trkpt>
      <trkpt lat="44.55478" lon="-0.23341">
        <ele>12.711</ele>
        <time>2017-03-28T16:03:38Z</time>
      </trkpt>
      <trkpt lat="44.55491" lon="-0.23143">
        <ele>8.811</ele>
        <time>2017-03-28T16:03:58Z</time>
      </trkpt>
      <trkpt lat="44.55419" lon="-0.23094">
        <ele>10.621</ele>
        <time>2017-03-28T16:04:18Z</time>
      </trkpt>
      <trkpt lat="44.55315" lon="-0.23098">
        <ele>12.303</ele>
        <time>2017-03-28T16:04:38Z</time>
      </trkpt>
      <trkpt lat="44.55315" lon="-0.22995">
        <ele>12.008</ele>
        <time>2017-03-28T16:04:58Z</time>
      </trkpt>
      <trkpt lat="44.55338" lon="-0.22907">
        <ele>12.197</ele>
        <time>2017-03-28T16:05:18Z</time>
      </trkpt>
      <trkpt lat="44.55393" lon="-0.22914">
        <ele>9.982</ele>
        <time>2017-03-28T16:05:38Z</time>
      </trkpt>
      <trkpt lat="44.55536" lon="-0.22899">
        <ele>9.892</ele>
        <time>2017-03-28T16:05:58Z</time>
      </trkpt>
      <trkpt lat="44.55591" lon="-0.22871">
        <ele>9.994</ele>
        <time>2017-03-28T16:06:18Z</time>
      </trkpt>
      <trkpt lat="44.5572" lon="-0.22847">
        <ele>9.516</ele>
        <time>2017-03-28T16:06:38Z</time>
      </trkpt>
      <trkpt lat="44.55818" lon="-0.22798">
        <ele>8.997</ele>
        <time>2017-03-28T16:06:58Z</time>
      </trkpt>
      <trkpt lat="44.55897" lon="-0.22766">
        <ele>8.453</ele>
        <time>2017-03-28T16:07:18Z</time>
      </trkpt>
      <trkpt lat="44.55965" lon="-0.22461">
        <ele>11.395</ele>
        <time>2017-03-28T16:07:38Z</time>
      </trkpt>
      <trkpt lat="44.55977" lon="-0.22388">
        <ele>10.015</ele>
        <time>2017-03-28T16:07:58Z</time>
      </trkpt>
      <trkpt lat="44.55995" lon="-0.22304">
        <ele>11.665</ele>
        <time>2017-03-28T16:08:18Z</time>
      </trkpt>
      <trkpt lat="44.56016" lon="-0.22137">
        <ele>11.111</ele>
        <time>2017-03-28T16:08:38Z</time>
      </trkpt>
      <trkpt lat="44.56078" lon="-0.21877">
        <ele>12.508</ele>
        <time>2017-03-28T16:08:58Z</time>
      </trkpt>
      <trkpt lat="44.56101" lon="-0.21607">
        <ele>14.047</ele>
        <time>2017-03-28T16:09:18Z</time>
      </trkpt>
      <trkpt lat="44.56133" lon="-0.2144">
        <ele>11.292</ele>
        <time>2017-03-28T16:09:38Z</time>
      </trkpt>
      <trkpt lat="44.56169" lon="-0.21339">
        <ele>8.012</ele>
        <time>2017-03-28T16:09:58Z</time>
      </trkpt>
      <trkpt lat="44.56197" lon="-0.21204">
        <ele>7.064</ele>
        <time>2017-03-28T16:10:18Z</time>
      </trkpt>
      <trkpt lat="44.56203" lon="-0.21077">
        <ele>7.916</ele>
        <time>2017-03-28T16:10:38Z</time>
      </trkpt>
      <trkpt lat="44.56188" lon="-0.20968">
        <ele>8.497</ele>
        <time>2017-03-28T16:10:58Z</time>
      </trkpt>
      <trkpt lat="44.56177" lon="-0.2077">
        <ele>8.363</ele>
        <time>2017-03-28T16:11:18Z</time>
      </trkpt>
      <trkpt lat="44.56159" lon="-0.2068">
        <ele>9.225</ele>
        <time>2017-03-28T16:11:38Z</time>
      </trkpt>
      <trkpt lat="44.56108" lon="-0.20575">
        <ele>10.116</ele>
        <time>2017-03-28T16:11:58Z</time>
      </trkpt>
      <trkpt lat="44.56119" lon="-0.20496">
        <ele>9.976</ele>
        <time>2017-03-28T16:12:18Z</time>
      </trkpt>
      <trkpt lat="44.56082" lon="-0.20468">
        <ele>13.113</ele>
        <time>2017-03-28T16:12:38Z</time>
      </trkpt>
      <trkpt lat="44.56088" lon="-0.20371">
        <ele>12.808</ele>
        <time>2017-03-28T16:12:58Z</time>
      </trkpt>
      <trkpt lat="44.56137" lon="-0.20414">
        <ele>11.047</ele>
        <time>2017-03-28T16:13:18Z</time>
      </trkpt>
      <trkpt lat="44.56249" lon="-0.2041">
        <ele>12.952</ele>
        <time>2017-03-28T16:13:38Z</time>
      </trkpt>
      <trkpt lat="44.56264" lon="-0.20431">
        <ele>11.552</ele>
        <time>2017-03-28T16:13:58Z</time>
      </trkpt>
      <trkpt lat="44.56275" lon="-0.20607">
        <ele>9.144</ele>
        <time>2017-03-28T16:14:18Z</time>
      </trkpt>
      <trkpt lat="44.56296" lon="-0.20629">
        <ele>9.036</ele>
        <time>2017-03-28T16:14:38Z</time>
      </trkpt>
      <trkpt lat="44.56344" lon="-0.20635">
        <ele>8.717</ele>
        <time>2017-03-28T16:14:58Z</time>
      </trkpt>
      <trkpt lat="44.56515" lon="-0.20721">
        <ele>9.073</ele>
        <time>2017-03-28T16:15:18Z</time>
      </trkpt>
      <trkpt lat="44.56524" lon="-0.2059">
        <ele>11.785</ele>
        <time>2017-03-28T16:15:38Z</time>
      </trkpt>
      <trkpt lat="44.56519" lon="-0.2035">
        <ele>12.766</ele>
        <time>2017-03-28T16:15:58Z</time>
      </trkpt>
      <trkpt lat="44.56486" lon="-0.20064">
        <ele>8.829</ele>
        <time>2017-03-28T16:16:18Z</time>
      </trkpt>
      <trkpt lat="44.5646" lon="-0.19695">
        <ele>8.521</ele>
        <time>2017-03-28T16:16:38Z</time>
      </trkpt>
      <trkpt lat="44.56454" lon="-0.19307">
        <ele>8.708</ele>
        <time>2017-03-28T16:16:58Z</time>
      </trkpt>
      <trkpt lat="44.56467" lon="-0.19219">
        <ele>9.012</ele>
        <time>2017-03-28T16:17:18Z</time>
      </trkpt>
      <trkpt lat="44.56469" lon="-0.19129">
        <ele>10.087</ele>
        <time>2017-03-28T16:17:38Z</time>
      </trkpt>
      <trkpt lat="44.56478" lon="-0.19034">
        <ele>9.627</ele>
        <time>2017-03-28T16:17:58Z</time>
      </trkpt>
      <trkpt lat="44.56484" lon="-0.18966">
        <ele>11.759</ele>
        <time>2017-03-28T16:18:18Z</time>
      </trkpt>
      <trkpt lat="44.56504" lon="-0.18927">
        <ele>10.061</ele>
        <time>2017-03-28T16:18:38Z</time>
      </trkpt>
      <trkpt lat="44.56515" lon="-0.1885">
        <ele>9.272</ele>
        <time>2017-03-28T16:18:58Z</time>
      </trkpt>
      <trkpt lat="44.56524" lon="-0.1876">
        <ele>12.548</ele>
        <time>2017-03-28T16:19:18Z</time>
      </trkpt>
      <trkpt lat="44.56634" lon="-0.18382">
        <ele>13.48</ele>
        <time>2017-03-28T16:19:38Z</time>
      </trkpt>
      <trkpt lat="44.56682" lon="-0.18161">
        <ele>10.575</ele>
        <time>2017-03-28T16:19:58Z</time>
      </trkpt>
      <trkpt lat="44.56701" lon="-0.17959">
        <ele>10.028</ele>
        <time>2017-03-28T16:20:18Z</time>
      </trkpt>
      <trkpt lat="44.56668" lon="-0.17919">
        <ele>10.02</ele>
        <time>2017-03-28T16:20:38Z</time>
      </trkpt>
      <trkpt lat="44.56662" lon="-0.17869">
        <ele>9.808</ele>
        <time>2017-03-28T16:20:58Z</time>
      </trkpt>
      <trkpt lat="44.56634" lon="-0.17803">
        <ele>11.833</ele>
        <time>2017-03-28T16:21:18Z</time>
      </trkpt>
      <trkpt lat="44.56614" lon="-0.17775">
        <ele>11.168</ele>
        <time>2017-03-28T16:21:38Z</time>
      </trkpt>
      <trkpt lat="44.56609" lon="-0.17748">
        <ele>11</ele>
      </trkpt>
      <trkpt lat="44.56607" lon="-0.17721">
        <ele>11.098</ele>
        <time>2017-03-28T16:21:58Z</time>
      </trkpt>
      <trkpt lat="44.56566" lon="-0.17713">
        <ele>11.3</ele>
      </trkpt>
      <trkpt lat="44.56526" lon="-0.17706">
        <ele>11.45</ele>
        <time>2017-03-28T16:22:18Z</time>
      </trkpt>
      <trkpt lat="44.56486" lon="-0.17695">
        <ele>11.042</ele>
        <time>2017-03-28T16:22:38Z</time>
      </trkpt>
      <trkpt lat="44.56422" lon="-0.17691">
        <ele>10.223</ele>
        <time>2017-03-28T16:22:58Z</time>
      </trkpt>
      <trkpt lat="44.56347" lon="-0.17665">
        <ele>11.589</ele>
        <time>2017-03-28T16:23:18Z</time>
      </trkpt>
      <trkpt lat="44.56299" lon="-0.17736">
        <ele>10.491</ele>
        <time>2017-03-28T16:23:38Z</time>
      </trkpt>
      <trkpt lat="44.56169" lon="-0.17682">
        <ele>9.874</ele>
        <time>2017-03-28T16:23:58Z</time>
      </trkpt>
      <trkpt lat="44.56013" lon="-0.1762">
        <ele>16.256</ele>
        <time>2017-03-28T16:24:18Z</time>
      </trkpt>
      <trkpt lat="44.56018" lon="-0.17768">
        <ele>11.621</ele>
        <time>2017-03-28T16:24:38Z</time>
      </trkpt>
      <trkpt lat="44.55983" lon="-0.1791">
        <ele>16.108</ele>
        <time>2017-03-28T16:24:58Z</time>
      </trkpt>
      <trkpt lat="44.55897" lon="-0.17919">
        <ele>27.113</ele>
        <time>2017-03-28T16:25:18Z</time>
      </trkpt>
      <trkpt lat="44.55841" lon="-0.17878">
        <ele>27.058</ele>
        <time>2017-03-28T16:25:38Z</time>
      </trkpt>
      <trkpt lat="44.55783" lon="-0.17876">
        <ele>27.918</ele>
        <time>2017-03-28T16:25:58Z</time>
      </trkpt>
      <trkpt lat="44.55708" lon="-0.17843">
        <ele>27.18</ele>
        <time>2017-03-28T16:26:18Z</time>
      </trkpt>
      <trkpt lat="44.55639" lon="-0.17798">
        <ele>31.572</ele>
        <time>2017-03-28T16:26:38Z</time>
      </trkpt>
      <trkpt lat="44.55628" lon="-0.17702">
        <ele>33.083</ele>
        <time>2017-03-28T16:26:58Z</time>
      </trkpt>
      <trkpt lat="44.55617" lon="-0.17665">
        <ele>33.059</ele>
        <time>2017-03-28T16:27:18Z</time>
      </trkpt>
      <trkpt lat="44.55604" lon="-0.17515">
        <ele>36.341</ele>
        <time>2017-03-28T16:27:38Z</time>
      </trkpt>
      <trkpt lat="44.55674" lon="-0.17318">
        <ele>35.122</ele>
        <time>2017-03-28T16:27:58Z</time>
      </trkpt>
      <trkpt lat="44.55688" lon="-0.1714">
        <ele>34.262</ele>
        <time>2017-03-28T16:28:18Z</time>
      </trkpt>
      <trkpt lat="44.55672" lon="-0.17082">
        <ele>34.708</ele>
        <time>2017-03-28T16:28:38Z</time>
      </trkpt>
      <trkpt lat="44.55688" lon="-0.16934">
        <ele>32.608</ele>
        <time>2017-03-28T16:28:58Z</time>
      </trkpt>
      <trkpt lat="44.55642" lon="-0.16923">
        <ele>33.198</ele>
        <time>2017-03-28T16:29:18Z</time>
      </trkpt>
      <trkpt lat="44.55639" lon="-0.16889">
        <ele>33.083</ele>
        <time>2017-03-28T16:29:38Z</time>
      </trkpt>
      <trkpt lat="44.55648" lon="-0.16818">
        <ele>33.223</ele>
        <time>2017-03-28T16:29:58Z</time>
      </trkpt>
      <trkpt lat="44.55636" lon="-0.16788">
        <ele>32.995</ele>
        <time>2017-03-28T16:30:18Z</time>
      </trkpt>
      <trkpt lat="44.5565" lon="-0.16723">
        <ele>28.787</ele>
        <time>2017-03-28T16:30:38Z</time>
      </trkpt>
      <trkpt lat="44.55671" lon="-0.16687">
        <ele>28.898</ele>
        <time>2017-03-28T16:30:58Z</time>
      </trkpt>
      <trkpt lat="44.55697" lon="-0.16603">
        <ele>24.264</ele>
        <time>2017-03-28T16:31:18Z</time>
      </trkpt>
      <trkpt lat="44.55805" lon="-0.16668">
        <ele>20.036</ele>
        <time>2017-03-28T16:31:38Z</time>
      </trkpt>
      <trkpt lat="44.55937" lon="-0.16502">
        <ele>12.392</ele>
        <time>2017-03-28T16:31:58Z</time>
      </trkpt>
      <trkpt lat="44.55902" lon="-0.16395">
        <ele>13.873</ele>
        <time>2017-03-28T16:32:18Z</time>
      </trkpt>
      <trkpt lat="44.55891" lon="-0.16275">
        <ele>18.62</ele>
        <time>2017-03-28T16:32:38Z</time>
      </trkpt>
      <trkpt lat="44.55911" lon="-0.16232">
        <ele>24.208</ele>
        <time>2017-03-28T16:32:58Z</time>
      </trkpt>
      <trkpt lat="44.55943" lon="-0.16219">
        <ele>27.115</ele>
        <time>2017-03-28T16:33:18Z</time>
      </trkpt>
      <trkpt lat="44.56021" lon="-0.1621">
        <ele>28.14</ele>
        <time>2017-03-28T16:33:38Z</time>
      </trkpt>
      <trkpt lat="44.56038" lon="-0.16172">
        <ele>28.68</ele>
        <time>2017-03-28T16:33:58Z</time>
      </trkpt>
      <trkpt lat="44.56065" lon="-0.16007">
        <ele>31.662</ele>
        <time>2017-03-28T16:34:18Z</time>
      </trkpt>
      <trkpt lat="44.56081" lon="-0.15835">
        <ele>32.914</ele>
        <time>2017-03-28T16:34:38Z</time>
      </trkpt>
      <trkpt lat="44.56177" lon="-0.15653">
        <ele>31.465</ele>
        <time>2017-03-28T16:34:58Z</time>
      </trkpt>
      <trkpt lat="44.56246" lon="-0.1562">
        <ele>32.351</ele>
        <time>2017-03-28T16:35:18Z</time>
      </trkpt>
      <trkpt lat="44.56289" lon="-0.15628">
        <ele>26.8</ele>
      </trkpt>
      <trkpt lat="44.56313" lon="-0.15592">
        <ele>21.8</ele>
      </trkpt>
      <trkpt lat="44.56321" lon="-0.15527">
        <ele>21</ele>
      </trkpt>
      <trkpt lat="44.56328" lon="-0.15517">
        <ele>19.9</ele>
      </trkpt>
      <trkpt lat="44.56354" lon="-0.15518">
        <ele>16.1</ele>
      </trkpt>
      <trkpt lat="44.56361" lon="-0.1538">
        <ele>18</ele>
      </trkpt>
      <trkpt lat="44.56366" lon="-0.15336">
        <ele>19.7</ele>
      </trkpt>
      <trkpt lat="44.56367" lon="-0.1529">
        <ele>18.4</ele>
      </trkpt>
      <trkpt lat="44.56361" lon="-0.15234">
        <ele>16.5</ele>
      </trkpt>
      <trkpt lat="44.5635" lon="-0.15194">
        <ele>14.5</ele>
      </trkpt>
      <trkpt lat="44.56258" lon="-0.15055">
        <ele>19</ele>
      </trkpt>
      <trkpt lat="44.56149" lon="-0.14877">
        <ele>21.9</ele>
      </trkpt>
      <trkpt lat="44.56079" lon="-0.14736">
        <ele>26.2</ele>
      </trkpt>
      <trkpt lat="44.56043" lon="-0.14638">
        <ele>28.6</ele>
      </trkpt>
      <trkpt lat="44.56023" lon="-0.14567">
        <ele>27.7</ele>
      </trkpt>
      <trkpt lat="44.56008" lon="-0.14487">
        <ele>27.2</ele>
      </trkpt>
      <trkpt lat="44.55983" lon="-0.14259">
        <ele>26.4</ele>
      </trkpt>
      <trkpt lat="44.55988" lon="-0.14181">
        <ele>25.7</ele>
      </trkpt>
    </trkseg>
  </trk>
</gpx>